PWSweather.com
Personal Weather Stations
Station Observations
SOUTHARDNJ
Southard, Howell, NJ 07731

SouthardHowell, NJ 07731

Lat: 40.13020859666565, Lon: -74.21449720859528

Elevation: 112

Station Type: Davis VP2 Plus

midatlwx.com

High Low Average
Temperature 49.3°F9.6°C 35.7°F2.1°C 43.3°F6.3°C
Dew Point 45.3°F7.4°C 33.1°F0.6°C 39.2°F4.0°C
Winds 4.6 mph 7.4 kmh Calm Calm 1.0 mph ESE1.6 kmh ESE
Wind Gusts 9.2 mph14.8 kmh -- 2.0 mph3.2 kmh
Humidity 90% 76% 85%
Pressure 30.42 in1030.1 mb 30.32 in1026.8 mb -
Precipitation 0.00 in0.0 mm - -
Hour Temp Dew Point Humidity Winds Wind Gusts Pressure Precip Precip Rate Daily Precip Total
12:03 AM 41.0°F5.0°C 36.2°F2.3°C 83% Calm Calm 1.1 mph1.8 kmh 30.38 in1028.8 mb - 0.00 in0.0 mm 0.00 in0.0 mm
12:09 AM 41.0°F5.0°C 36.2°F2.3°C 83% Calm Calm -- 30.38 in1028.8 mb - 0.00 in0.0 mm 0.00 in0.0 mm
12:15 AM 41.0°F5.0°C 36.5°F2.5°C 84% Calm Calm -- 30.38 in1028.8 mb - 0.00 in0.0 mm 0.00 in0.0 mm
12:26 AM 40.2°F4.6°C 36.4°F2.4°C 86% Calm Calm 1.1 mph1.8 kmh 30.38 in1028.8 mb - 0.00 in0.0 mm 0.00 in0.0 mm
12:31 AM 40.6°F4.8°C 36.4°F2.4°C 85% Calm Calm 1.1 mph1.8 kmh 30.38 in1028.8 mb - 0.00 in0.0 mm 0.00 in0.0 mm
12:37 AM 41.3°F5.2°C 36.8°F2.7°C 84% 1.1 mph SE1.8 kmh SE 2.3 mph3.7 kmh 30.38 in1028.8 mb - 0.00 in0.0 mm 0.00 in0.0 mm
12:43 AM 41.3°F5.2°C 36.9°F2.7°C 84% Calm Calm 1.1 mph1.8 kmh 30.38 in1028.8 mb - 0.00 in0.0 mm 0.00 in0.0 mm
12:48 AM 42.4°F5.8°C 37.0°F2.8°C 81% 1.1 mph E1.8 kmh E 2.3 mph3.7 kmh 30.39 in1029.1 mb - 0.00 in0.0 mm 0.00 in0.0 mm
12:54 AM 42.8°F6.0°C 37.1°F2.8°C 80% Calm Calm 1.1 mph1.8 kmh 30.39 in1029.1 mb - 0.00 in0.0 mm 0.00 in0.0 mm
01:00 AM 42.7°F5.9°C 36.9°F2.7°C 80% 1.1 mph E1.8 kmh E 3.4 mph5.5 kmh 30.39 in1029.1 mb - 0.00 in0.0 mm 0.00 in0.0 mm
01:05 AM 43.0°F6.1°C 36.9°F2.7°C 79% 2.3 mph E3.7 kmh E 3.4 mph5.5 kmh 30.39 in1029.1 mb - 0.00 in0.0 mm 0.00 in0.0 mm
01:11 AM 43.2°F6.2°C 36.8°F2.7°C 78% 2.3 mph E3.7 kmh E 3.4 mph5.5 kmh 30.39 in1029.1 mb - 0.00 in0.0 mm 0.00 in0.0 mm
01:16 AM 43.4°F6.3°C 37.0°F2.8°C 78% 2.3 mph ESE3.7 kmh ESE 3.4 mph5.5 kmh 30.39 in1029.1 mb - 0.00 in0.0 mm 0.00 in0.0 mm
01:22 AM 43.4°F6.3°C 37.0°F2.8°C 78% 2.3 mph E3.7 kmh E 4.6 mph7.4 kmh 30.39 in1029.1 mb - 0.00 in0.0 mm 0.00 in0.0 mm
01:28 AM 43.3°F6.3°C 36.9°F2.7°C 78% Calm Calm 2.3 mph3.7 kmh 30.39 in1029.1 mb - 0.00 in0.0 mm 0.00 in0.0 mm
01:33 AM 42.4°F5.8°C 36.7°F2.6°C 80% 1.1 mph E1.8 kmh E 3.4 mph5.5 kmh 30.39 in1029.1 mb - 0.00 in0.0 mm 0.00 in0.0 mm
01:39 AM 42.4°F5.8°C 36.7°F2.6°C 80% 1.1 mph E1.8 kmh E 1.1 mph1.8 kmh 30.39 in1029.1 mb - 0.00 in0.0 mm 0.00 in0.0 mm
01:45 AM 42.4°F5.8°C 36.3°F2.4°C 79% 1.1 mph E1.8 kmh E 1.1 mph1.8 kmh 30.39 in1029.1 mb - 0.00 in0.0 mm 0.00 in0.0 mm
01:50 AM 41.7°F5.4°C 36.0°F2.2°C 80% 1.1 mph E1.8 kmh E 3.4 mph5.5 kmh 30.39 in1029.1 mb - 0.00 in0.0 mm 0.00 in0.0 mm
01:56 AM 42.1°F5.6°C 36.6°F2.6°C 81% 2.3 mph ESE3.7 kmh ESE 3.4 mph5.5 kmh 30.39 in1029.1 mb - 0.00 in0.0 mm 0.00 in0.0 mm
02:01 AM 42.2°F5.7°C 36.5°F2.5°C 80% 2.3 mph ESE3.7 kmh ESE 3.4 mph5.5 kmh 30.39 in1029.1 mb - 0.00 in0.0 mm 0.00 in0.0 mm
02:07 AM 42.8°F6.0°C 36.4°F2.4°C 78% 1.1 mph ESE1.8 kmh ESE 4.6 mph7.4 kmh 30.39 in1029.1 mb - 0.00 in0.0 mm 0.00 in0.0 mm
02:13 AM 42.9°F6.1°C 36.5°F2.5°C 78% 1.1 mph SE1.8 kmh SE 3.4 mph5.5 kmh 30.40 in1029.5 mb - 0.00 in0.0 mm 0.00 in0.0 mm
02:18 AM 42.6°F5.9°C 36.2°F2.3°C 78% 1.1 mph SE1.8 kmh SE 3.4 mph5.5 kmh 30.40 in1029.5 mb - 0.00 in0.0 mm 0.00 in0.0 mm
02:24 AM 42.4°F5.8°C 36.0°F2.2°C 78% 2.3 mph SE3.7 kmh SE 3.4 mph5.5 kmh 30.40 in1029.5 mb - 0.00 in0.0 mm 0.00 in0.0 mm
02:30 AM 42.5°F5.8°C 35.8°F2.1°C 77% 2.3 mph SE3.7 kmh SE 4.6 mph7.4 kmh 30.40 in1029.5 mb - 0.00 in0.0 mm 0.00 in0.0 mm
02:35 AM 42.5°F5.8°C 35.8°F2.1°C 77% 2.3 mph SE3.7 kmh SE 2.3 mph3.7 kmh 30.40 in1029.5 mb - 0.00 in0.0 mm 0.00 in0.0 mm
02:41 AM 42.1°F5.6°C 35.7°F2.1°C 78% 3.4 mph E5.5 kmh E 5.8 mph9.3 kmh 30.40 in1029.5 mb - 0.00 in0.0 mm 0.00 in0.0 mm
02:46 AM 42.1°F5.6°C 35.8°F2.1°C 78% 2.3 mph E3.7 kmh E 3.4 mph5.5 kmh 30.41 in1029.8 mb - 0.00 in0.0 mm 0.00 in0.0 mm
02:52 AM 42.2°F5.7°C 35.5°F1.9°C 77% 2.3 mph SE3.7 kmh SE 4.6 mph7.4 kmh 30.41 in1029.8 mb - 0.00 in0.0 mm 0.00 in0.0 mm
02:58 AM 42.0°F5.6°C 35.3°F1.8°C 77% 2.3 mph SE3.7 kmh SE 3.4 mph5.5 kmh 30.41 in1029.8 mb - 0.00 in0.0 mm 0.00 in0.0 mm
03:03 AM 41.9°F5.5°C 34.9°F1.6°C 76% 3.4 mph SE5.5 kmh SE 8.0 mph12.9 kmh 30.41 in1029.8 mb - 0.00 in0.0 mm 0.00 in0.0 mm
03:09 AM 41.9°F5.5°C 34.9°F1.6°C 76% 2.3 mph SE3.7 kmh SE 4.6 mph7.4 kmh 30.41 in1029.8 mb - 0.00 in0.0 mm 0.00 in0.0 mm
03:15 AM 41.6°F5.3°C 34.6°F1.4°C 76% 1.1 mph SE1.8 kmh SE 4.6 mph7.4 kmh 30.41 in1029.8 mb - 0.00 in0.0 mm 0.00 in0.0 mm
03:20 AM 41.6°F5.3°C 34.6°F1.4°C 76% 1.1 mph SE1.8 kmh SE 4.6 mph7.4 kmh 30.41 in1029.8 mb - 0.00 in0.0 mm 0.00 in0.0 mm
03:26 AM 41.5°F5.3°C 34.5°F1.4°C 76% 1.1 mph SE1.8 kmh SE 2.3 mph3.7 kmh 30.41 in1029.8 mb - 0.00 in0.0 mm 0.00 in0.0 mm
03:31 AM 41.3°F5.2°C 34.7°F1.5°C 77% 1.1 mph ESE1.8 kmh ESE 2.3 mph3.7 kmh 30.41 in1029.8 mb - 0.00 in0.0 mm 0.00 in0.0 mm
03:37 AM 41.3°F5.2°C 34.6°F1.4°C 77% 1.1 mph ESE1.8 kmh ESE 3.4 mph5.5 kmh 30.41 in1029.8 mb - 0.00 in0.0 mm 0.00 in0.0 mm
03:43 AM 41.3°F5.2°C 34.6°F1.4°C 77% 1.1 mph SE1.8 kmh SE 3.4 mph5.5 kmh 30.41 in1029.8 mb - 0.00 in0.0 mm 0.00 in0.0 mm
03:48 AM 41.2°F5.1°C 34.9°F1.6°C 78% 2.3 mph SE3.7 kmh SE 3.4 mph5.5 kmh 30.41 in1029.8 mb - 0.00 in0.0 mm 0.00 in0.0 mm
03:54 AM 41.1°F5.1°C 34.8°F1.6°C 78% 2.3 mph SE3.7 kmh SE 3.4 mph5.5 kmh 30.41 in1029.8 mb - 0.00 in0.0 mm 0.00 in0.0 mm
04:00 AM 41.1°F5.1°C 35.1°F1.7°C 79% 2.3 mph SE3.7 kmh SE 3.4 mph5.5 kmh 30.41 in1029.8 mb - 0.00 in0.0 mm 0.00 in0.0 mm
04:05 AM 41.1°F5.1°C 35.0°F1.7°C 79% 2.3 mph SE3.7 kmh SE 8.0 mph12.9 kmh 30.41 in1029.8 mb - 0.00 in0.0 mm 0.00 in0.0 mm
04:11 AM 41.1°F5.1°C 35.4°F1.9°C 80% 3.4 mph SE5.5 kmh SE 4.6 mph7.4 kmh 30.41 in1029.8 mb - 0.00 in0.0 mm 0.00 in0.0 mm
04:16 AM 41.1°F5.1°C 35.4°F1.9°C 80% 3.4 mph SE5.5 kmh SE 3.4 mph5.5 kmh 30.41 in1029.8 mb - 0.00 in0.0 mm 0.00 in0.0 mm
04:22 AM 41.0°F5.0°C 35.3°F1.8°C 80% 2.3 mph SE3.7 kmh SE 6.9 mph11.1 kmh 30.41 in1029.8 mb - 0.00 in0.0 mm 0.00 in0.0 mm
04:28 AM 41.0°F5.0°C 35.6°F2.0°C 81% 4.6 mph SE7.4 kmh SE 9.2 mph14.8 kmh 30.41 in1029.8 mb - 0.00 in0.0 mm 0.00 in0.0 mm
04:33 AM 41.0°F5.0°C 35.6°F2.0°C 81% 4.6 mph SE7.4 kmh SE 8.0 mph12.9 kmh 30.40 in1029.5 mb - 0.00 in0.0 mm 0.00 in0.0 mm
04:39 AM 41.0°F5.0°C 35.6°F2.0°C 81% 3.4 mph SSE5.5 kmh SSE 5.8 mph9.3 kmh 30.40 in1029.5 mb - 0.00 in0.0 mm 0.00 in0.0 mm
04:45 AM 40.9°F4.9°C 35.8°F2.1°C 82% 3.4 mph SE5.5 kmh SE 9.2 mph14.8 kmh 30.41 in1029.8 mb - 0.00 in0.0 mm 0.00 in0.0 mm
04:50 AM 40.9°F4.9°C 35.8°F2.1°C 82% 3.4 mph SE5.5 kmh SE 6.9 mph11.1 kmh 30.40 in1029.5 mb - 0.00 in0.0 mm 0.00 in0.0 mm
04:56 AM 40.7°F4.8°C 35.9°F2.2°C 83% 4.6 mph ESE7.4 kmh ESE 9.2 mph14.8 kmh 30.40 in1029.5 mb - 0.00 in0.0 mm 0.00 in0.0 mm
05:01 AM 40.7°F4.8°C 35.6°F2.0°C 82% 4.6 mph SE7.4 kmh SE 8.0 mph12.9 kmh 30.41 in1029.8 mb - 0.00 in0.0 mm 0.00 in0.0 mm
05:07 AM 40.5°F4.7°C 35.4°F1.9°C 82% 4.6 mph ESE7.4 kmh ESE 6.9 mph11.1 kmh 30.41 in1029.8 mb - 0.00 in0.0 mm 0.00 in0.0 mm
05:13 AM 40.5°F4.7°C 35.4°F1.9°C 82% 3.4 mph SE5.5 kmh SE 5.8 mph9.3 kmh 30.41 in1029.8 mb - 0.00 in0.0 mm 0.00 in0.0 mm
05:18 AM 40.5°F4.7°C 35.4°F1.9°C 82% 3.4 mph SE5.5 kmh SE 5.8 mph9.3 kmh 30.41 in1029.8 mb - 0.00 in0.0 mm 0.00 in0.0 mm
05:24 AM 40.4°F4.7°C 35.3°F1.8°C 82% 2.3 mph SE3.7 kmh SE 3.4 mph5.5 kmh 30.41 in1029.8 mb - 0.00 in0.0 mm 0.00 in0.0 mm
05:30 AM 40.4°F4.7°C 35.3°F1.8°C 82% 3.4 mph ESE5.5 kmh ESE 4.6 mph7.4 kmh 30.41 in1029.8 mb - 0.00 in0.0 mm 0.00 in0.0 mm
05:35 AM 40.3°F4.6°C 35.3°F1.8°C 82% 1.1 mph SE1.8 kmh SE 3.4 mph5.5 kmh 30.41 in1029.8 mb - 0.00 in0.0 mm 0.00 in0.0 mm
05:41 AM 40.3°F4.6°C 35.2°F1.8°C 82% 2.3 mph SE3.7 kmh SE 6.9 mph11.1 kmh 30.41 in1029.8 mb - 0.00 in0.0 mm 0.00 in0.0 mm
05:46 AM 40.2°F4.6°C 35.2°F1.8°C 82% 3.4 mph SE5.5 kmh SE 6.9 mph11.1 kmh 30.41 in1029.8 mb - 0.00 in0.0 mm 0.00 in0.0 mm
05:52 AM 40.2°F4.6°C 35.1°F1.7°C 82% 2.3 mph ESE3.7 kmh ESE 3.4 mph5.5 kmh 30.41 in1029.8 mb - 0.00 in0.0 mm 0.00 in0.0 mm
05:58 AM 40.1°F4.5°C 35.4°F1.9°C 83% 2.3 mph SE3.7 kmh SE 3.4 mph5.5 kmh 30.41 in1029.8 mb - 0.00 in0.0 mm 0.00 in0.0 mm
06:03 AM 40.0°F4.4°C 35.3°F1.8°C 83% 2.3 mph ESE3.7 kmh ESE 3.4 mph5.5 kmh 30.41 in1029.8 mb - 0.00 in0.0 mm 0.00 in0.0 mm
06:09 AM 40.0°F4.4°C 35.3°F1.8°C 83% 1.1 mph ESE1.8 kmh ESE 3.4 mph5.5 kmh 30.41 in1029.8 mb - 0.00 in0.0 mm 0.00 in0.0 mm
06:15 AM 39.8°F4.3°C 35.1°F1.7°C 83% 1.1 mph E1.8 kmh E 2.3 mph3.7 kmh 30.41 in1029.8 mb - 0.00 in0.0 mm 0.00 in0.0 mm
06:20 AM 39.8°F4.3°C 35.1°F1.7°C 83% 1.1 mph ESE1.8 kmh ESE 3.4 mph5.5 kmh 30.42 in1030.1 mb - 0.00 in0.0 mm 0.00 in0.0 mm
06:26 AM 39.7°F4.3°C 35.0°F1.7°C 83% 1.1 mph ESE1.8 kmh ESE 2.3 mph3.7 kmh 30.41 in1029.8 mb - 0.00 in0.0 mm 0.00 in0.0 mm
06:31 AM 39.5°F4.2°C 34.8°F1.6°C 83% 2.3 mph SE3.7 kmh SE 6.9 mph11.1 kmh 30.41 in1029.8 mb - 0.00 in0.0 mm 0.00 in0.0 mm
06:37 AM 39.5°F4.2°C 34.8°F1.6°C 83% 2.3 mph ESE3.7 kmh ESE 5.8 mph9.3 kmh 30.41 in1029.8 mb - 0.00 in0.0 mm 0.00 in0.0 mm
06:43 AM 39.6°F4.2°C 34.9°F1.6°C 83% 3.4 mph ESE5.5 kmh ESE 6.9 mph11.1 kmh 30.41 in1029.8 mb - 0.00 in0.0 mm 0.00 in0.0 mm
06:48 AM 39.7°F4.3°C 34.9°F1.6°C 83% 2.3 mph SE3.7 kmh SE 3.4 mph5.5 kmh 30.40 in1029.5 mb - 0.00 in0.0 mm 0.00 in0.0 mm
06:54 AM 39.6°F4.2°C 34.9°F1.6°C 83% 2.3 mph SE3.7 kmh SE 3.4 mph5.5 kmh 30.40 in1029.5 mb - 0.00 in0.0 mm 0.00 in0.0 mm
07:00 AM 39.7°F4.3°C 35.3°F1.8°C 84% 2.3 mph SSE3.7 kmh SSE 5.8 mph9.3 kmh 30.40 in1029.5 mb - 0.00 in0.0 mm 0.00 in0.0 mm
07:05 AM 39.7°F4.3°C 35.3°F1.8°C 84% 2.3 mph S3.7 kmh S 5.8 mph9.3 kmh 30.40 in1029.5 mb - 0.00 in0.0 mm 0.00 in0.0 mm
07:11 AM 39.8°F4.3°C 35.6°F2.0°C 85% 3.4 mph SE5.5 kmh SE 8.0 mph12.9 kmh 30.39 in1029.1 mb - 0.00 in0.0 mm 0.00 in0.0 mm
07:16 AM 39.9°F4.4°C 35.7°F2.1°C 85% 2.3 mph SE3.7 kmh SE 5.8 mph9.3 kmh 30.39 in1029.1 mb - 0.00 in0.0 mm 0.00 in0.0 mm
07:22 AM 39.9°F4.4°C 36.0°F2.2°C 86% 2.3 mph ESE3.7 kmh ESE 3.4 mph5.5 kmh 30.39 in1029.1 mb - 0.00 in0.0 mm 0.00 in0.0 mm
07:28 AM 40.0°F4.4°C 36.1°F2.3°C 86% 2.3 mph SE3.7 kmh SE 3.4 mph5.5 kmh 30.39 in1029.1 mb - 0.00 in0.0 mm 0.00 in0.0 mm
07:33 AM 39.5°F4.2°C 35.7°F2.1°C 86% 1.1 mph E1.8 kmh E 2.3 mph3.7 kmh 30.39 in1029.1 mb - 0.00 in0.0 mm 0.00 in0.0 mm
07:39 AM 39.4°F4.1°C 35.5°F1.9°C 86% 1.1 mph E1.8 kmh E 2.3 mph3.7 kmh 30.39 in1029.1 mb - 0.00 in0.0 mm 0.00 in0.0 mm
07:45 AM 39.5°F4.2°C 36.2°F2.3°C 88% 1.1 mph ESE1.8 kmh ESE 3.4 mph5.5 kmh 30.38 in1028.8 mb - 0.00 in0.0 mm 0.00 in0.0 mm
07:50 AM 39.8°F4.3°C 36.5°F2.5°C 88% 2.3 mph ESE3.7 kmh ESE 5.8 mph9.3 kmh 30.38 in1028.8 mb - 0.00 in0.0 mm 0.00 in0.0 mm
07:56 AM 40.3°F4.6°C 37.0°F2.8°C 88% 1.1 mph SE1.8 kmh SE 6.9 mph11.1 kmh 30.38 in1028.8 mb - 0.00 in0.0 mm 0.00 in0.0 mm
08:01 AM 40.6°F4.8°C 37.3°F2.9°C 88% 2.3 mph SE3.7 kmh SE 3.4 mph5.5 kmh 30.38 in1028.8 mb - 0.00 in0.0 mm 0.00 in0.0 mm
08:07 AM 40.7°F4.8°C 37.4°F3.0°C 88% 2.3 mph SE3.7 kmh SE 6.9 mph11.1 kmh 30.38 in1028.8 mb - 0.00 in0.0 mm 0.00 in0.0 mm
08:13 AM 40.9°F4.9°C 37.6°F3.1°C 88% 1.1 mph SE1.8 kmh SE 1.1 mph1.8 kmh 30.37 in1028.4 mb - 0.00 in0.0 mm 0.00 in0.0 mm
08:18 AM 41.4°F5.2°C 38.1°F3.4°C 88% 2.3 mph SE3.7 kmh SE 3.4 mph5.5 kmh 30.37 in1028.4 mb - 0.00 in0.0 mm 0.00 in0.0 mm
08:24 AM 41.6°F5.3°C 38.3°F3.5°C 88% 1.1 mph SE1.8 kmh SE 3.4 mph5.5 kmh 30.37 in1028.4 mb - 0.00 in0.0 mm 0.00 in0.0 mm
08:30 AM 41.8°F5.4°C 38.5°F3.6°C 88% 1.1 mph SSE1.8 kmh SSE 4.6 mph7.4 kmh 30.37 in1028.4 mb - 0.00 in0.0 mm 0.00 in0.0 mm
08:35 AM 42.2°F5.7°C 38.9°F3.8°C 88% Calm Calm 3.4 mph5.5 kmh 30.38 in1028.8 mb - 0.00 in0.0 mm 0.00 in0.0 mm
08:41 AM 42.8°F6.0°C 39.5°F4.2°C 88% 1.1 mph SE1.8 kmh SE 3.4 mph5.5 kmh 30.39 in1029.1 mb - 0.00 in0.0 mm 0.00 in0.0 mm
08:46 AM 43.0°F6.1°C 39.7°F4.3°C 88% 2.3 mph SE3.7 kmh SE 4.6 mph7.4 kmh 30.39 in1029.1 mb - 0.00 in0.0 mm 0.00 in0.0 mm
08:52 AM 43.3°F6.3°C 40.0°F4.4°C 88% 1.1 mph SE1.8 kmh SE 3.4 mph5.5 kmh 30.39 in1029.1 mb - 0.00 in0.0 mm 0.00 in0.0 mm
08:58 AM 43.6°F6.4°C 40.3°F4.6°C 88% 2.3 mph SE3.7 kmh SE 5.8 mph9.3 kmh 30.39 in1029.1 mb - 0.00 in0.0 mm 0.00 in0.0 mm
09:03 AM 43.8°F6.6°C 40.2°F4.6°C 87% 2.3 mph ESE3.7 kmh ESE 3.4 mph5.5 kmh 30.38 in1028.8 mb - 0.00 in0.0 mm 0.00 in0.0 mm
09:09 AM 44.1°F6.7°C 40.5°F4.7°C 87% 1.1 mph SE1.8 kmh SE 4.6 mph7.4 kmh 30.39 in1029.1 mb - 0.00 in0.0 mm 0.00 in0.0 mm
09:15 AM 44.6°F7.0°C 41.0°F5.0°C 87% 2.3 mph SSE3.7 kmh SSE 3.4 mph5.5 kmh 30.39 in1029.1 mb - 0.00 in0.0 mm 0.00 in0.0 mm
09:20 AM 44.8°F7.1°C 41.2°F5.1°C 87% 2.3 mph SSE3.7 kmh SSE 3.4 mph5.5 kmh 30.39 in1029.1 mb - 0.00 in0.0 mm 0.00 in0.0 mm
09:26 AM 45.0°F7.2°C 41.4°F5.2°C 87% 2.3 mph ESE3.7 kmh ESE 6.9 mph11.1 kmh 30.39 in1029.1 mb - 0.00 in0.0 mm 0.00 in0.0 mm
09:31 AM 45.3°F7.4°C 41.7°F5.4°C 87% Calm Calm 2.3 mph3.7 kmh 30.40 in1029.5 mb - 0.00 in0.0 mm 0.00 in0.0 mm
09:37 AM 45.7°F7.6°C 42.1°F5.6°C 87% 1.1 mph SSE1.8 kmh SSE 3.4 mph5.5 kmh 30.40 in1029.5 mb - 0.00 in0.0 mm 0.00 in0.0 mm
09:43 AM 45.8°F7.7°C 41.9°F5.5°C 86% 2.3 mph SE3.7 kmh SE 3.4 mph5.5 kmh 30.40 in1029.5 mb - 0.00 in0.0 mm 0.00 in0.0 mm
09:48 AM 46.1°F7.8°C 42.5°F5.8°C 87% 1.1 mph E1.8 kmh E 1.1 mph1.8 kmh 30.40 in1029.5 mb - 0.00 in0.0 mm 0.00 in0.0 mm
09:54 AM 46.3°F7.9°C 42.7°F5.9°C 87% 1.1 mph ESE1.8 kmh ESE 2.3 mph3.7 kmh 30.41 in1029.8 mb - 0.00 in0.0 mm 0.00 in0.0 mm
10:00 AM 46.6°F8.1°C 42.6°F5.9°C 86% 1.1 mph E1.8 kmh E 3.4 mph5.5 kmh 30.41 in1029.8 mb - 0.00 in0.0 mm 0.00 in0.0 mm
10:05 AM 46.6°F8.1°C 42.7°F5.9°C 86% 1.1 mph E1.8 kmh E 1.1 mph1.8 kmh 30.41 in1029.8 mb - 0.00 in0.0 mm 0.00 in0.0 mm
10:11 AM 47.1°F8.4°C 43.1°F6.2°C 86% 2.3 mph SE3.7 kmh SE 3.4 mph5.5 kmh 30.41 in1029.8 mb - 0.00 in0.0 mm 0.00 in0.0 mm
10:16 AM 47.2°F8.4°C 43.2°F6.2°C 86% 2.3 mph SE3.7 kmh SE 3.4 mph5.5 kmh 30.40 in1029.5 mb - 0.00 in0.0 mm 0.00 in0.0 mm
10:22 AM 47.3°F8.5°C 43.3°F6.3°C 86% 2.3 mph SE3.7 kmh SE 3.4 mph5.5 kmh 30.39 in1029.1 mb - 0.00 in0.0 mm 0.00 in0.0 mm
10:28 AM 47.7°F8.7°C 43.7°F6.5°C 86% Calm Calm 2.3 mph3.7 kmh 30.39 in1029.1 mb - 0.00 in0.0 mm 0.00 in0.0 mm
10:33 AM 48.2°F9.0°C 44.2°F6.8°C 86% 1.1 mph SSE1.8 kmh SSE 1.1 mph1.8 kmh 30.39 in1029.1 mb - 0.00 in0.0 mm 0.00 in0.0 mm
10:45 AM 48.4°F9.1°C 44.1°F6.7°C 85% 1.1 mph ESE1.8 kmh ESE 2.3 mph3.7 kmh 30.40 in1029.5 mb - 0.00 in0.0 mm 0.00 in0.0 mm
10:50 AM 48.5°F9.2°C 44.2°F6.8°C 85% Calm Calm 2.3 mph3.7 kmh 30.40 in1029.5 mb - 0.00 in0.0 mm 0.00 in0.0 mm
10:56 AM 48.7°F9.3°C 44.4°F6.9°C 85% 2.3 mph SE3.7 kmh SE 5.8 mph9.3 kmh 30.40 in1029.5 mb - 0.00 in0.0 mm 0.00 in0.0 mm
11:01 AM 48.8°F9.3°C 44.1°F6.7°C 84% 2.3 mph SE3.7 kmh SE 3.4 mph5.5 kmh 30.40 in1029.5 mb - 0.00 in0.0 mm 0.00 in0.0 mm
11:07 AM 48.9°F9.4°C 44.6°F7.0°C 85% 1.1 mph SE1.8 kmh SE 2.3 mph3.7 kmh 30.39 in1029.1 mb - 0.00 in0.0 mm 0.00 in0.0 mm
11:13 AM 49.0°F9.4°C 44.3°F6.8°C 84% 2.3 mph SE3.7 kmh SE 3.4 mph5.5 kmh 30.38 in1028.8 mb - 0.00 in0.0 mm 0.00 in0.0 mm
11:18 AM 49.2°F9.6°C 44.6°F7.0°C 84% 3.4 mph S5.5 kmh S 8.0 mph12.9 kmh 30.37 in1028.4 mb - 0.00 in0.0 mm 0.00 in0.0 mm
11:24 AM 49.2°F9.6°C 44.6°F7.0°C 84% 3.4 mph S5.5 kmh S 5.8 mph9.3 kmh 30.37 in1028.4 mb - 0.00 in0.0 mm 0.00 in0.0 mm
11:30 AM 49.2°F9.6°C 44.9°F7.2°C 85% 1.1 mph ESE1.8 kmh ESE 3.4 mph5.5 kmh 30.37 in1028.4 mb - 0.00 in0.0 mm 0.00 in0.0 mm
11:35 AM 49.2°F9.6°C 44.9°F7.2°C 85% 1.1 mph E1.8 kmh E 3.4 mph5.5 kmh 30.37 in1028.4 mb - 0.00 in0.0 mm 0.00 in0.0 mm
11:41 AM 49.3°F9.6°C 45.0°F7.2°C 85% 1.1 mph SE1.8 kmh SE 3.4 mph5.5 kmh 30.36 in1028.1 mb - 0.00 in0.0 mm 0.00 in0.0 mm
11:52 AM 49.3°F9.6°C 44.9°F7.2°C 85% 2.3 mph SE3.7 kmh SE 3.4 mph5.5 kmh 30.36 in1028.1 mb - 0.00 in0.0 mm 0.00 in0.0 mm
11:58 AM 49.3°F9.6°C 45.3°F7.4°C 86% 1.1 mph ESE1.8 kmh ESE 2.3 mph3.7 kmh 30.36 in1028.1 mb - 0.00 in0.0 mm 0.00 in0.0 mm
12:15 PM 49.2°F9.6°C 45.2°F7.3°C 86% 1.1 mph E1.8 kmh E 2.3 mph3.7 kmh 30.35 in1027.8 mb - 0.00 in0.0 mm 0.00 in0.0 mm
12:20 PM 49.3°F9.6°C 45.3°F7.4°C 86% 1.1 mph E1.8 kmh E 3.4 mph5.5 kmh 30.35 in1027.8 mb - 0.00 in0.0 mm 0.00 in0.0 mm
12:26 PM 49.3°F9.6°C 45.3°F7.4°C 86% 1.1 mph SE1.8 kmh SE 2.3 mph3.7 kmh 30.35 in1027.8 mb - 0.00 in0.0 mm 0.00 in0.0 mm
12:37 PM 48.5°F9.2°C 43.9°F6.6°C 84% 2.3 mph E3.7 kmh E 3.4 mph5.5 kmh 30.34 in1027.4 mb - 0.00 in0.0 mm 0.00 in0.0 mm
12:43 PM 48.5°F9.2°C 44.2°F6.8°C 85% 1.1 mph ENE1.8 kmh ENE 3.4 mph5.5 kmh 30.34 in1027.4 mb - 0.00 in0.0 mm 0.00 in0.0 mm
12:48 PM 48.2°F9.0°C 43.6°F6.4°C 84% 2.3 mph NE3.7 kmh NE 3.4 mph5.5 kmh 30.34 in1027.4 mb - 0.00 in0.0 mm 0.00 in0.0 mm
12:54 PM 47.9°F8.8°C 43.6°F6.4°C 85% Calm Calm 2.3 mph3.7 kmh 30.34 in1027.4 mb - 0.00 in0.0 mm 0.00 in0.0 mm
01:00 PM 47.7°F8.7°C 43.7°F6.5°C 86% 2.3 mph NE3.7 kmh NE 2.3 mph3.7 kmh 30.33 in1027.1 mb - 0.00 in0.0 mm 0.00 in0.0 mm
01:05 PM 47.7°F8.7°C 44.0°F6.7°C 87% 1.1 mph NNE1.8 kmh NNE 3.4 mph5.5 kmh 30.33 in1027.1 mb - 0.00 in0.0 mm 0.00 in0.0 mm
01:11 PM 47.8°F8.8°C 43.8°F6.6°C 86% 1.1 mph NNE1.8 kmh NNE 3.4 mph5.5 kmh 30.33 in1027.1 mb - 0.00 in0.0 mm 0.00 in0.0 mm
01:22 PM 47.9°F8.8°C 43.9°F6.6°C 86% 1.1 mph E1.8 kmh E 3.4 mph5.5 kmh 30.32 in1026.8 mb - 0.00 in0.0 mm 0.00 in0.0 mm
01:28 PM 47.6°F8.7°C 43.3°F6.3°C 85% Calm Calm -- 30.33 in1027.1 mb - 0.00 in0.0 mm 0.00 in0.0 mm
01:33 PM 47.5°F8.6°C 43.2°F6.2°C 85% 1.1 mph NE1.8 kmh NE 3.4 mph5.5 kmh 30.32 in1026.8 mb - 0.00 in0.0 mm 0.00 in0.0 mm
01:39 PM 47.4°F8.6°C 43.4°F6.3°C 86% 1.1 mph NE1.8 kmh NE 3.4 mph5.5 kmh 30.32 in1026.8 mb - 0.00 in0.0 mm 0.00 in0.0 mm
01:45 PM 47.2°F8.4°C 43.2°F6.2°C 86% 1.1 mph NE1.8 kmh NE 2.3 mph3.7 kmh 30.33 in1027.1 mb - 0.00 in0.0 mm 0.00 in0.0 mm
01:50 PM 47.2°F8.4°C 43.2°F6.2°C 86% 1.1 mph NNE1.8 kmh NNE 1.1 mph1.8 kmh 30.33 in1027.1 mb - 0.00 in0.0 mm 0.00 in0.0 mm
01:56 PM 47.4°F8.6°C 43.5°F6.4°C 86% Calm Calm -- 30.33 in1027.1 mb - 0.00 in0.0 mm 0.00 in0.0 mm
02:01 PM 47.4°F8.6°C 43.4°F6.3°C 86% Calm Calm -- 30.33 in1027.1 mb - 0.00 in0.0 mm 0.00 in0.0 mm
02:07 PM 47.4°F8.6°C 43.8°F6.6°C 87% 1.1 mph N1.8 kmh N 3.4 mph5.5 kmh 30.33 in1027.1 mb - 0.00 in0.0 mm 0.00 in0.0 mm
02:13 PM 47.5°F8.6°C 43.8°F6.6°C 87% 1.1 mph NE1.8 kmh NE 2.3 mph3.7 kmh 30.33 in1027.1 mb - 0.00 in0.0 mm 0.00 in0.0 mm
02:18 PM 47.5°F8.6°C 43.5°F6.4°C 86% 1.1 mph NNE1.8 kmh NNE 2.3 mph3.7 kmh 30.33 in1027.1 mb - 0.00 in0.0 mm 0.00 in0.0 mm
02:24 PM 47.6°F8.7°C 43.6°F6.4°C 86% 1.1 mph NE1.8 kmh NE 2.3 mph3.7 kmh 30.33 in1027.1 mb - 0.00 in0.0 mm 0.00 in0.0 mm
02:30 PM 47.6°F8.7°C 43.6°F6.4°C 86% 2.3 mph E3.7 kmh E 3.4 mph5.5 kmh 30.33 in1027.1 mb - 0.00 in0.0 mm 0.00 in0.0 mm
02:35 PM 47.6°F8.7°C 43.6°F6.4°C 86% 2.3 mph E3.7 kmh E 3.4 mph5.5 kmh 30.33 in1027.1 mb - 0.00 in0.0 mm 0.00 in0.0 mm
02:41 PM 47.4°F8.6°C 43.5°F6.4°C 86% 1.1 mph NE1.8 kmh NE 3.4 mph5.5 kmh 30.33 in1027.1 mb - 0.00 in0.0 mm 0.00 in0.0 mm
02:46 PM 47.7°F8.7°C 43.7°F6.5°C 86% Calm Calm 3.4 mph5.5 kmh 30.32 in1026.8 mb - 0.00 in0.0 mm 0.00 in0.0 mm
02:52 PM 47.6°F8.7°C 43.3°F6.3°C 85% 1.1 mph NE1.8 kmh NE 3.4 mph5.5 kmh 30.33 in1027.1 mb - 0.00 in0.0 mm 0.00 in0.0 mm
02:58 PM 47.6°F8.7°C 43.3°F6.3°C 85% 1.1 mph NE1.8 kmh NE 2.3 mph3.7 kmh 30.33 in1027.1 mb - 0.00 in0.0 mm 0.00 in0.0 mm
03:03 PM 47.5°F8.6°C 43.5°F6.4°C 86% 1.1 mph E1.8 kmh E 1.1 mph1.8 kmh 30.33 in1027.1 mb - 0.00 in0.0 mm 0.00 in0.0 mm
03:09 PM 47.5°F8.6°C 43.5°F6.4°C 86% 1.1 mph E1.8 kmh E 2.3 mph3.7 kmh 30.33 in1027.1 mb - 0.00 in0.0 mm 0.00 in0.0 mm
03:15 PM 47.3°F8.5°C 43.3°F6.3°C 86% 1.1 mph NE1.8 kmh NE 1.1 mph1.8 kmh 30.33 in1027.1 mb - 0.00 in0.0 mm 0.00 in0.0 mm
03:20 PM 47.3°F8.5°C 43.3°F6.3°C 86% Calm Calm 1.1 mph1.8 kmh 30.33 in1027.1 mb - 0.00 in0.0 mm 0.00 in0.0 mm
03:26 PM 47.1°F8.4°C 43.4°F6.3°C 87% 1.1 mph ENE1.8 kmh ENE 3.4 mph5.5 kmh 30.32 in1026.8 mb - 0.00 in0.0 mm 0.00 in0.0 mm
03:31 PM 47.0°F8.3°C 43.3°F6.3°C 87% Calm Calm -- 30.32 in1026.8 mb - 0.00 in0.0 mm 0.00 in0.0 mm
03:37 PM 47.0°F8.3°C 43.6°F6.4°C 88% Calm Calm -- 30.32 in1026.8 mb - 0.00 in0.0 mm 0.00 in0.0 mm
03:43 PM 47.0°F8.3°C 43.6°F6.4°C 88% Calm Calm -- 30.32 in1026.8 mb - 0.00 in0.0 mm 0.00 in0.0 mm
03:48 PM 47.0°F8.3°C 43.6°F6.4°C 88% Calm Calm -- 30.32 in1026.8 mb - 0.00 in0.0 mm 0.00 in0.0 mm
03:54 PM 47.1°F8.4°C 43.7°F6.5°C 88% Calm Calm 2.3 mph3.7 kmh 30.32 in1026.8 mb - 0.00 in0.0 mm 0.00 in0.0 mm
04:00 PM 47.1°F8.4°C 43.7°F6.5°C 88% 1.1 mph NNE1.8 kmh NNE 2.3 mph3.7 kmh 30.32 in1026.8 mb - 0.00 in0.0 mm 0.00 in0.0 mm
04:05 PM 47.0°F8.3°C 43.6°F6.4°C 88% Calm Calm -- 30.32 in1026.8 mb - 0.00 in0.0 mm 0.00 in0.0 mm
04:11 PM 47.0°F8.3°C 43.6°F6.4°C 88% Calm Calm -- 30.32 in1026.8 mb - 0.00 in0.0 mm 0.00 in0.0 mm
04:16 PM 47.0°F8.3°C 43.9°F6.6°C 89% 1.1 mph N1.8 kmh N 3.4 mph5.5 kmh 30.32 in1026.8 mb - 0.00 in0.0 mm 0.00 in0.0 mm
04:22 PM 47.0°F8.3°C 43.6°F6.4°C 88% 1.1 mph NE1.8 kmh NE 1.1 mph1.8 kmh 30.33 in1027.1 mb - 0.00 in0.0 mm 0.00 in0.0 mm
04:28 PM 47.0°F8.3°C 43.6°F6.4°C 88% 1.1 mph ENE1.8 kmh ENE 3.4 mph5.5 kmh 30.32 in1026.8 mb - 0.00 in0.0 mm 0.00 in0.0 mm
04:33 PM 46.9°F8.3°C 43.6°F6.4°C 88% Calm Calm -- 30.33 in1027.1 mb - 0.00 in0.0 mm 0.00 in0.0 mm
04:39 PM 46.9°F8.3°C 43.5°F6.4°C 88% Calm Calm -- 30.32 in1026.8 mb - 0.00 in0.0 mm 0.00 in0.0 mm
04:45 PM 46.8°F8.2°C 43.5°F6.4°C 88% Calm Calm -- 30.32 in1026.8 mb - 0.00 in0.0 mm 0.00 in0.0 mm
04:50 PM 46.7°F8.2°C 43.4°F6.3°C 88% Calm Calm -- 30.32 in1026.8 mb - 0.00 in0.0 mm 0.00 in0.0 mm
04:56 PM 46.7°F8.2°C 43.3°F6.3°C 88% Calm Calm -- 30.32 in1026.8 mb - 0.00 in0.0 mm 0.00 in0.0 mm
05:01 PM 46.6°F8.1°C 43.2°F6.2°C 88% Calm Calm -- 30.32 in1026.8 mb - 0.00 in0.0 mm 0.00 in0.0 mm
05:07 PM 46.4°F8.0°C 43.3°F6.3°C 89% Calm Calm -- 30.32 in1026.8 mb - 0.00 in0.0 mm 0.00 in0.0 mm
05:13 PM 46.4°F8.0°C 43.3°F6.3°C 89% Calm Calm -- 30.32 in1026.8 mb - 0.00 in0.0 mm 0.00 in0.0 mm
05:18 PM 46.3°F7.9°C 43.2°F6.2°C 89% Calm Calm -- 30.32 in1026.8 mb - 0.00 in0.0 mm 0.00 in0.0 mm
05:24 PM 46.2°F7.9°C 43.2°F6.2°C 89% Calm Calm -- 30.33 in1027.1 mb - 0.00 in0.0 mm 0.00 in0.0 mm
05:30 PM 46.2°F7.9°C 43.1°F6.2°C 89% Calm Calm -- 30.33 in1027.1 mb - 0.00 in0.0 mm 0.00 in0.0 mm
05:35 PM 46.2°F7.9°C 43.1°F6.2°C 89% Calm Calm -- 30.34 in1027.4 mb - 0.00 in0.0 mm 0.00 in0.0 mm
05:41 PM 46.2°F7.9°C 43.1°F6.2°C 89% Calm Calm 1.1 mph1.8 kmh 30.34 in1027.4 mb - 0.00 in0.0 mm 0.00 in0.0 mm
05:46 PM 46.2°F7.9°C 43.1°F6.2°C 89% Calm Calm 1.1 mph1.8 kmh 30.34 in1027.4 mb - 0.00 in0.0 mm 0.00 in0.0 mm
05:52 PM 46.2°F7.9°C 42.8°F6.0°C 88% Calm Calm -- 30.35 in1027.8 mb - 0.00 in0.0 mm 0.00 in0.0 mm
05:58 PM 46.1°F7.8°C 42.8°F6.0°C 88% Calm Calm 2.3 mph3.7 kmh 30.35 in1027.8 mb - 0.00 in0.0 mm 0.00 in0.0 mm
06:03 PM 46.2°F7.9°C 42.8°F6.0°C 88% Calm Calm 2.3 mph3.7 kmh 30.35 in1027.8 mb - 0.00 in0.0 mm 0.00 in0.0 mm
06:09 PM 46.1°F7.8°C 42.8°F6.0°C 88% Calm Calm 2.3 mph3.7 kmh 30.35 in1027.8 mb - 0.00 in0.0 mm 0.00 in0.0 mm
06:15 PM 46.1°F7.8°C 42.7°F5.9°C 88% 1.1 mph NNE1.8 kmh NNE 2.3 mph3.7 kmh 30.35 in1027.8 mb - 0.00 in0.0 mm 0.00 in0.0 mm
06:20 PM 46.1°F7.8°C 42.7°F5.9°C 88% 1.1 mph NNE1.8 kmh NNE 3.4 mph5.5 kmh 30.36 in1028.1 mb - 0.00 in0.0 mm 0.00 in0.0 mm
06:26 PM 46.0°F7.8°C 42.6°F5.9°C 88% 1.1 mph NNW1.8 kmh NNW 2.3 mph3.7 kmh 30.36 in1028.1 mb - 0.00 in0.0 mm 0.00 in0.0 mm
06:31 PM 46.0°F7.8°C 42.6°F5.9°C 88% Calm Calm 1.1 mph1.8 kmh 30.36 in1028.1 mb - 0.00 in0.0 mm 0.00 in0.0 mm
06:37 PM 45.9°F7.7°C 42.6°F5.9°C 88% 1.1 mph N1.8 kmh N 1.1 mph1.8 kmh 30.36 in1028.1 mb - 0.00 in0.0 mm 0.00 in0.0 mm
06:43 PM 45.8°F7.7°C 42.5°F5.8°C 88% Calm Calm 1.1 mph1.8 kmh 30.36 in1028.1 mb - 0.00 in0.0 mm 0.00 in0.0 mm
06:48 PM 45.7°F7.6°C 42.4°F5.8°C 88% Calm Calm 1.1 mph1.8 kmh 30.36 in1028.1 mb - 0.00 in0.0 mm 0.00 in0.0 mm
06:54 PM 45.6°F7.6°C 42.0°F5.6°C 87% Calm Calm -- 30.36 in1028.1 mb - 0.00 in0.0 mm 0.00 in0.0 mm
07:00 PM 45.3°F7.4°C 41.7°F5.4°C 87% Calm Calm -- 30.37 in1028.4 mb - 0.00 in0.0 mm 0.00 in0.0 mm
07:05 PM 45.3°F7.4°C 41.6°F5.3°C 87% Calm Calm -- 30.37 in1028.4 mb - 0.00 in0.0 mm 0.00 in0.0 mm
07:11 PM 45.0°F7.2°C 41.4°F5.2°C 87% Calm Calm -- 30.37 in1028.4 mb - 0.00 in0.0 mm 0.00 in0.0 mm
07:16 PM 44.9°F7.2°C 41.2°F5.1°C 87% Calm Calm -- 30.37 in1028.4 mb - 0.00 in0.0 mm 0.00 in0.0 mm
07:22 PM 44.7°F7.1°C 41.0°F5.0°C 87% Calm Calm -- 30.37 in1028.4 mb - 0.00 in0.0 mm 0.00 in0.0 mm
07:28 PM 44.5°F6.9°C 40.8°F4.9°C 87% Calm Calm -- 30.37 in1028.4 mb - 0.00 in0.0 mm 0.00 in0.0 mm
07:33 PM 44.1°F6.7°C 40.4°F4.7°C 87% Calm Calm -- 30.37 in1028.4 mb - 0.00 in0.0 mm 0.00 in0.0 mm
07:39 PM 43.9°F6.6°C 40.3°F4.6°C 87% Calm Calm -- 30.37 in1028.4 mb - 0.00 in0.0 mm 0.00 in0.0 mm
07:45 PM 43.6°F6.4°C 40.0°F4.4°C 87% Calm Calm -- 30.37 in1028.4 mb - 0.00 in0.0 mm 0.00 in0.0 mm
07:50 PM 43.5°F6.4°C 39.8°F4.3°C 87% Calm Calm -- 30.37 in1028.4 mb - 0.00 in0.0 mm 0.00 in0.0 mm
07:56 PM 43.2°F6.2°C 39.6°F4.2°C 87% Calm Calm -- 30.37 in1028.4 mb - 0.00 in0.0 mm 0.00 in0.0 mm
08:01 PM 43.0°F6.1°C 39.7°F4.3°C 88% Calm Calm -- 30.37 in1028.4 mb - 0.00 in0.0 mm 0.00 in0.0 mm
08:07 PM 42.8°F6.0°C 39.5°F4.2°C 88% Calm Calm -- 30.37 in1028.4 mb - 0.00 in0.0 mm 0.00 in0.0 mm
08:18 PM 42.2°F5.7°C 38.9°F3.8°C 88% Calm Calm -- 30.37 in1028.4 mb - 0.00 in0.0 mm 0.00 in0.0 mm
08:24 PM 42.0°F5.6°C 38.7°F3.7°C 88% Calm Calm -- 30.38 in1028.8 mb - 0.00 in0.0 mm 0.00 in0.0 mm
08:30 PM 41.7°F5.4°C 38.4°F3.6°C 88% Calm Calm -- 30.37 in1028.4 mb - 0.00 in0.0 mm 0.00 in0.0 mm
08:35 PM 41.5°F5.3°C 38.3°F3.5°C 88% Calm Calm -- 30.38 in1028.8 mb - 0.00 in0.0 mm 0.00 in0.0 mm
08:41 PM 41.2°F5.1°C 37.9°F3.3°C 88% Calm Calm -- 30.38 in1028.8 mb - 0.00 in0.0 mm 0.00 in0.0 mm
08:46 PM 41.1°F5.1°C 37.8°F3.2°C 88% Calm Calm -- 30.38 in1028.8 mb - 0.00 in0.0 mm 0.00 in0.0 mm
08:52 PM 40.9°F4.9°C 37.9°F3.3°C 89% Calm Calm -- 30.38 in1028.8 mb - 0.00 in0.0 mm 0.00 in0.0 mm
08:58 PM 40.7°F4.8°C 37.7°F3.2°C 89% Calm Calm -- 30.38 in1028.8 mb - 0.00 in0.0 mm 0.00 in0.0 mm
09:03 PM 40.6°F4.8°C 37.6°F3.1°C 89% Calm Calm -- 30.38 in1028.8 mb - 0.00 in0.0 mm 0.00 in0.0 mm
09:09 PM 40.5°F4.7°C 37.5°F3.1°C 89% Calm Calm -- 30.38 in1028.8 mb - 0.00 in0.0 mm 0.00 in0.0 mm
09:15 PM 40.1°F4.5°C 37.2°F2.9°C 89% Calm Calm -- 30.38 in1028.8 mb - 0.00 in0.0 mm 0.00 in0.0 mm
09:20 PM 40.0°F4.4°C 37.1°F2.8°C 89% Calm Calm -- 30.38 in1028.8 mb - 0.00 in0.0 mm 0.00 in0.0 mm
09:26 PM 39.8°F4.3°C 36.8°F2.7°C 89% Calm Calm -- 30.38 in1028.8 mb - 0.00 in0.0 mm 0.00 in0.0 mm
09:31 PM 39.6°F4.2°C 36.7°F2.6°C 89% Calm Calm -- 30.38 in1028.8 mb - 0.00 in0.0 mm 0.00 in0.0 mm
09:37 PM 39.3°F4.1°C 36.3°F2.4°C 89% Calm Calm -- 30.39 in1029.1 mb - 0.00 in0.0 mm 0.00 in0.0 mm
09:43 PM 39.2°F4.0°C 36.2°F2.3°C 89% Calm Calm -- 30.38 in1028.8 mb - 0.00 in0.0 mm 0.00 in0.0 mm
09:48 PM 38.8°F3.8°C 35.9°F2.2°C 89% Calm Calm -- 30.38 in1028.8 mb - 0.00 in0.0 mm 0.00 in0.0 mm
09:54 PM 38.8°F3.8°C 35.8°F2.1°C 89% Calm Calm -- 30.38 in1028.8 mb - 0.00 in0.0 mm 0.00 in0.0 mm
10:00 PM 38.5°F3.6°C 35.6°F2.0°C 89% Calm Calm -- 30.38 in1028.8 mb - 0.00 in0.0 mm 0.00 in0.0 mm
10:05 PM 38.4°F3.6°C 35.4°F1.9°C 89% Calm Calm -- 30.38 in1028.8 mb - 0.00 in0.0 mm 0.00 in0.0 mm
10:11 PM 38.2°F3.4°C 35.3°F1.8°C 89% Calm Calm -- 30.38 in1028.8 mb - 0.00 in0.0 mm 0.00 in0.0 mm
10:16 PM 38.0°F3.3°C 35.1°F1.7°C 89% Calm Calm -- 30.38 in1028.8 mb - 0.00 in0.0 mm 0.00 in0.0 mm
10:22 PM 37.7°F3.2°C 34.8°F1.6°C 89% Calm Calm -- 30.38 in1028.8 mb - 0.00 in0.0 mm 0.00 in0.0 mm
10:28 PM 37.5°F3.1°C 34.6°F1.4°C 89% Calm Calm -- 30.38 in1028.8 mb - 0.00 in0.0 mm 0.00 in0.0 mm
10:33 PM 37.4°F3.0°C 34.5°F1.4°C 89% Calm Calm -- 30.38 in1028.8 mb - 0.00 in0.0 mm 0.00 in0.0 mm
10:39 PM 37.3°F2.9°C 34.6°F1.4°C 90% Calm Calm -- 30.38 in1028.8 mb - 0.00 in0.0 mm 0.00 in0.0 mm
10:45 PM 37.2°F2.9°C 34.5°F1.4°C 90% Calm Calm -- 30.38 in1028.8 mb - 0.00 in0.0 mm 0.00 in0.0 mm
10:50 PM 37.2°F2.9°C 34.5°F1.4°C 90% Calm Calm -- 30.38 in1028.8 mb - 0.00 in0.0 mm 0.00 in0.0 mm
10:56 PM 37.1°F2.8°C 34.4°F1.3°C 90% Calm Calm -- 30.38 in1028.8 mb - 0.00 in0.0 mm 0.00 in0.0 mm
11:01 PM 36.9°F2.7°C 34.3°F1.3°C 90% Calm Calm -- 30.38 in1028.8 mb - 0.00 in0.0 mm 0.00 in0.0 mm
11:07 PM 36.8°F2.7°C 34.2°F1.2°C 90% Calm Calm -- 30.39 in1029.1 mb - 0.00 in0.0 mm 0.00 in0.0 mm
11:13 PM 36.8°F2.7°C 34.1°F1.2°C 90% Calm Calm -- 30.38 in1028.8 mb - 0.00 in0.0 mm 0.00 in0.0 mm
11:18 PM 36.5°F2.5°C 33.9°F1.1°C 90% Calm Calm -- 30.38 in1028.8 mb - 0.00 in0.0 mm 0.00 in0.0 mm
11:24 PM 36.5°F2.5°C 33.8°F1.0°C 90% Calm Calm -- 30.38 in1028.8 mb - 0.00 in0.0 mm 0.00 in0.0 mm
11:30 PM 36.4°F2.4°C 33.7°F0.9°C 90% Calm Calm -- 30.38 in1028.8 mb - 0.00 in0.0 mm 0.00 in0.0 mm
11:35 PM 36.2°F2.3°C 33.5°F0.8°C 90% Calm Calm -- 30.38 in1028.8 mb - 0.00 in0.0 mm 0.00 in0.0 mm
11:41 PM 36.1°F2.3°C 33.5°F0.8°C 90% Calm Calm -- 30.38 in1028.8 mb - 0.00 in0.0 mm 0.00 in0.0 mm
11:46 PM 35.9°F2.2°C 33.3°F0.7°C 90% Calm Calm -- 30.38 in1028.8 mb - 0.00 in0.0 mm 0.00 in0.0 mm
11:52 PM 35.8°F2.1°C 33.2°F0.7°C 90% Calm Calm -- 30.37 in1028.4 mb - 0.00 in0.0 mm 0.00 in0.0 mm
11:58 PM 35.7°F2.1°C 33.1°F0.6°C 90% Calm Calm -- 30.37 in1028.4 mb - 0.00 in0.0 mm 0.00 in0.0 mm